Time;durP1;ratioP1;P1;durP2;ratioP2;P2;SDS_P1;SDS_P2;PMS_P1;PMS_P2;Temp;Humidity;BMP_temperature;BMP_pressure;BME280_temperature;BME280_humidity;BME280_pressure;Samples;Min_cycle;Max_cycle;Signal;HPM_P1;HPM_P2
2023/10/22 00:00:19;;;;;;;7.55;4.35;;;;;;;24.38;45.40;98561.72;4483649;32;33719;-63
2023/10/22 00:02:47;;;;;;;10.32;4.00;;;;;;;24.37;45.40;98552.72;4482321;32;33664;-64
2023/10/22 00:05:14;;;;;;;7.32;3.78;;;;;;;24.38;45.38;98532.56;4483217;32;34838;-63
2023/10/22 00:07:42;;;;;;;6.20;3.78;;;;;;;24.37;45.40;98528.19;4483466;32;33895;-64
2023/10/22 00:10:09;;;;;;;9.07;3.50;;;;;;;24.38;45.44;98520.84;4483398;32;34378;-63
2023/10/22 00:12:37;;;;;;;7.20;3.87;;;;;;;24.38;45.41;98512.66;4483644;32;33347;-64
2023/10/22 00:15:05;;;;;;;8.77;4.60;;;;;;;24.37;45.32;98511.84;4483365;32;33558;-63
2023/10/22 00:17:33;;;;;;;7.07;3.78;;;;;;;24.38;45.32;98518.12;4483299;32;33911;-63
2023/10/22 00:20:00;;;;;;;9.02;4.37;;;;;;;24.37;45.37;98521.94;4484377;32;33272;-64
2023/10/22 00:22:28;;;;;;;6.82;3.78;;;;;;;24.36;45.34;98532.00;4485396;32;33838;-63
2023/10/22 00:24:56;;;;;;;9.70;4.60;;;;;;;24.36;45.38;98523.84;4485311;32;33857;-64
2023/10/22 00:27:23;;;;;;;8.38;4.18;;;;;;;24.37;45.39;98522.75;4485512;32;34050;-64
2023/10/22 00:29:52;;;;;;;7.18;3.85;;;;;;;24.37;45.31;98525.47;4485280;32;33479;-63
2023/10/22 00:32:20;;;;;;;7.15;3.97;;;;;;;24.36;45.38;98534.75;4485078;32;34591;-64
2023/10/22 00:34:47;;;;;;;5.57;3.22;;;;;;;24.37;45.41;98530.09;4485542;32;33797;-63
2023/10/22 00:37:15;;;;;;;7.32;3.60;;;;;;;24.36;45.41;98529.28;4485226;32;34735;-64
2023/10/22 00:39:43;;;;;;;11.43;4.10;;;;;;;24.38;45.38;98529.00;4485114;32;34079;-63
2023/10/22 00:42:10;;;;;;;6.40;3.60;;;;;;;24.40;45.39;98535.88;4469590;32;33320;-63
2023/10/22 00:44:38;;;;;;;7.07;3.95;;;;;;;24.43;45.41;98529.03;4468274;32;34764;-64
2023/10/22 00:47:07;;;;;;;10.15;3.95;;;;;;;24.42;45.35;98524.69;4455389;32;34299;-63
2023/10/22 00:49:34;;;;;;;6.32;3.72;;;;;;;24.42;45.36;98527.41;4468068;32;33575;-64
2023/10/22 00:52:03;;;;;;;9.93;3.95;;;;;;;24.41;45.35;98528.50;4468229;32;34756;-63
2023/10/22 00:54:31;;;;;;;6.63;3.70;;;;;;;24.42;45.35;98521.94;4469331;32;33555;-63
2023/10/22 00:56:59;;;;;;;8.30;3.55;;;;;;;24.43;45.30;98527.16;4468222;32;34176;-63
2023/10/22 00:59:26;;;;;;;7.05;3.50;;;;;;;24.41;45.35;98521.13;4468180;32;34413;-64
2023/10/22 01:01:54;;;;;;;5.32;3.45;;;;;;;24.40;45.35;98516.78;4468125;32;33164;-63
2023/10/22 01:04:23;;;;;;;7.72;3.42;;;;;;;24.41;45.33;98526.59;4469450;32;33529;-63
2023/10/22 01:06:50;;;;;;;8.13;3.85;;;;;;;24.42;45.25;98530.94;4468101;32;34156;-64
2023/10/22 01:09:20;;;;;;;8.20;3.95;;;;;;;24.42;45.25;98527.41;4467971;32;33279;-63
2023/10/22 01:12:04;;;;;;;5.85;3.58;;;;;;;24.42;45.21;98525.50;4469350;32;33824;-63
2023/10/22 01:14:32;;;;;;;6.80;3.62;;;;;;;24.45;45.17;98531.53;4469429;32;34090;-64
2023/10/22 01:17:00;;;;;;;8.40;3.75;;;;;;;24.41;45.26;98531.22;4469537;32;34854;-64
2023/10/22 01:19:28;;;;;;;9.40;3.60;;;;;;;24.39;45.31;98525.22;4469583;32;33841;-64
2023/10/22 01:21:57;;;;;;;7.12;3.90;;;;;;;24.38;45.33;98529.84;4469447;32;33905;-63
2023/10/22 01:24:25;;;;;;;9.63;3.65;;;;;;;24.38;45.36;98529.00;4467988;32;33814;-64
2023/10/22 01:26:52;;;;;;;6.62;3.35;;;;;;;24.38;45.39;98520.84;4469450;32;33435;-64
2023/10/22 01:29:21;;;;;;;8.75;3.53;;;;;;;24.37;45.41;98530.94;4469015;32;33572;-64
2023/10/22 01:31:48;;;;;;;8.00;3.62;;;;;;;24.37;45.38;98524.66;4469010;32;33830;-64
2023/10/22 01:34:16;;;;;;;7.85;3.83;;;;;;;24.37;45.40;98517.28;4469306;32;34762;-64
2023/10/22 01:36:45;;;;;;;7.90;3.45;;;;;;;24.37;45.40;98514.56;4469024;32;34217;-63
2023/10/22 01:39:14;;;;;;;7.10;3.40;;;;;;;24.37;45.41;98511.03;4469225;32;33123;-63
2023/10/22 01:41:43;;;;;;;9.00;4.03;;;;;;;24.38;45.40;98513.47;4482057;32;33754;-63
2023/10/22 01:44:10;;;;;;;7.10;3.25;;;;;;;24.38;45.36;98521.66;4483615;32;33775;-63
2023/10/22 01:46:38;;;;;;;7.53;3.72;;;;;;;24.37;45.36;98520.03;4484745;32;35266;-63
2023/10/22 01:49:05;;;;;;;7.43;3.42;;;;;;;24.37;45.39;98530.09;4484690;32;34043;-63
2023/10/22 01:51:33;;;;;;;8.10;3.62;;;;;;;24.37;45.36;98530.09;4484534;32;34302;-64
2023/10/22 01:54:01;;;;;;;5.40;3.78;;;;;;;24.37;45.30;98532.84;4484687;32;34156;-63
2023/10/22 01:56:28;;;;;;;4.62;2.85;;;;;;;24.36;45.29;98526.56;4484674;32;33922;-63
2023/10/22 01:58:56;;;;;;;6.47;3.50;;;;;;;24.37;45.29;98532.84;4485076;32;34413;-64
2023/10/22 02:01:26;;;;;;;6.65;3.80;;;;;;;24.37;45.30;98536.38;4484684;32;33848;-64
2023/10/22 02:03:54;;;;;;;7.32;3.62;;;;;;;24.36;45.29;98532.00;4470958;32;33757;-63
2023/10/22 02:06:22;;;;;;;6.78;3.55;;;;;;;24.38;45.27;98532.56;4484540;32;34793;-63
2023/10/22 02:08:49;;;;;;;7.05;3.17;;;;;;;24.37;45.25;98527.38;4484671;32;33490;-63
2023/10/22 02:11:17;;;;;;;6.82;3.70;;;;;;;24.37;45.27;98527.38;4470383;32;33840;-64
2023/10/22 02:13:45;;;;;;;6.80;3.12;;;;;;;24.36;45.28;98534.75;4470433;32;33976;-64
2023/10/22 02:16:13;;;;;;;6.75;3.17;;;;;;;24.36;45.29;98525.72;4484832;32;34003;-64
2023/10/22 02:18:40;;;;;;;6.55;3.22;;;;;;;24.36;45.34;98528.44;4484465;32;33572;-63
2023/10/22 02:21:08;;;;;;;8.13;3.70;;;;;;;24.36;45.32;98526.56;4484570;32;33757;-63
2023/10/22 02:23:38;;;;;;;6.00;3.10;;;;;;;24.36;45.31;98525.72;4484641;32;33826;-64
2023/10/22 02:26:07;;;;;;;5.80;3.33;;;;;;;24.36;45.32;98531.16;4470443;32;33698;-63
2023/10/22 02:28:35;;;;;;;6.50;3.75;;;;;;;24.36;45.27;98528.44;4484494;32;33435;-63
2023/10/22 02:31:04;;;;;;;4.82;3.08;;;;;;;24.36;45.31;98525.72;4484468;32;33788;-64
2023/10/22 02:33:32;;;;;;;;;;;;;;;24.35;45.32;98522.16;4484554;32;34022;-64
2023/10/22 02:36:00;;;;;;;5.57;3.40;;;;;;;24.45;45.16;98513.25;4484590;32;34338;-63
2023/10/22 02:38:28;;;;;;;5.95;3.53;;;;;;;24.37;45.29;98513.75;4484474;32;33736;-64
2023/10/22 02:40:56;;;;;;;7.22;3.15;;;;;;;24.34;45.34;98515.09;4476418;32;33821;-64
2023/10/22 02:43:23;;;;;;;7.28;2.90;;;;;;;24.34;45.38;98508.78;4467854;32;33773;-63
2023/10/22 02:45:51;;;;;;;5.37;3.20;;;;;;;24.34;45.41;98508.78;4468643;32;33886;-63
2023/10/22 02:48:19;;;;;;;5.72;3.30;;;;;;;24.33;45.40;98504.41;4454453;32;33653;-64
2023/10/22 02:50:47;;;;;;;8.13;3.45;;;;;;;24.33;45.42;98504.41;4477287;32;33989;-63
2023/10/22 02:53:15;;;;;;;7.00;3.75;;;;;;;24.33;45.40;98507.97;4483103;32;34864;-64
2023/10/22 02:55:42;;;;;;;5.37;2.87;;;;;;;24.33;45.40;98512.59;4482865;32;33681;-64
2023/10/22 02:58:10;;;;;;;6.25;3.40;;;;;;;24.32;45.35;98513.69;4484127;32;33606;-63
2023/10/22 03:00:38;;;;;;;7.10;3.22;;;;;;;24.33;45.36;98505.25;4484245;32;34884;-63
2023/10/22 03:03:06;;;;;;;5.10;3.20;;;;;;;24.34;45.29;98508.78;4484107;32;35265;-64
2023/10/22 03:05:33;;;;;;;6.10;3.25;;;;;;;24.34;45.29;98520.53;4484329;32;34521;-64
2023/10/22 03:08:03;;;;;;;6.82;3.22;;;;;;;24.37;45.25;98522.75;4482922;32;33578;-63
2023/10/22 03:10:32;;;;;;;6.57;3.35;;;;;;;24.38;45.22;98521.66;4484461;32;33451;-64
2023/10/22 03:13:01;;;;;;;6.22;3.15;;;;;;;24.38;45.21;98513.47;4482954;32;34321;-63
2023/10/22 03:15:29;;;;;;;6.00;3.15;;;;;;;24.38;45.19;98518.12;4484301;32;33894;-64
2023/10/22 03:17:57;;;;;;;13.82;4.15;;;;;;;24.37;45.20;98524.66;4484473;32;33865;-63
2023/10/22 03:20:25;;;;;;;7.07;3.65;;;;;;;24.37;45.20;98527.38;4484090;32;33950;-63
2023/10/22 03:22:53;;;;;;;8.98;3.28;;;;;;;24.36;45.18;98525.72;4483909;32;33492;-64
2023/10/22 03:25:22;;;;;;;6.78;3.03;;;;;;;24.35;45.22;98518.62;4484049;32;34752;-64
2023/10/22 03:27:49;;;;;;;6.18;3.22;;;;;;;24.36;45.28;98523.00;4483950;32;34362;-63
2023/10/22 03:30:17;;;;;;;7.00;3.42;;;;;;;24.36;45.31;98523.00;4483831;32;33728;-64
2023/10/22 03:32:45;;;;;;;8.00;3.47;;;;;;;24.35;45.35;98521.34;4484168;32;33877;-63
2023/10/22 03:35:13;;;;;;;6.40;3.60;;;;;;;24.34;45.34;98520.53;4482366;32;34214;-64
2023/10/22 03:37:41;;;;;;;4.85;2.67;;;;;;;24.35;45.30;98518.62;4482899;32;33632;-64
2023/10/22 03:40:11;;;;;;;11.12;3.55;;;;;;;24.35;45.33;98534.97;4483990;32;34098;-63
2023/10/22 03:42:39;;;;;;;6.72;3.62;;;;;;;24.34;45.35;98534.16;4483784;32;34677;-64
2023/10/22 03:45:07;;;;;;;6.10;3.28;;;;;;;24.35;45.34;98534.97;4483678;32;34154;-64
2023/10/22 03:47:35;;;;;;;5.28;2.95;;;;;;;24.33;45.36;98534.41;4483622;32;33639;-63
2023/10/22 03:50:03;;;;;;;7.22;3.05;;;;;;;24.34;45.30;98536.03;4483783;32;34511;-63
2023/10/22 03:52:30;;;;;;;6.32;3.08;;;;;;;24.34;45.29;98544.22;4483525;32;33766;-64
2023/10/22 03:54:59;;;;;;;8.50;2.92;;;;;;;24.34;45.23;98549.66;4479444;32;34078;-64
2023/10/22 03:57:27;;;;;;;5.70;3.28;;;;;;;24.33;45.29;98553.50;4469839;32;33594;-63
2023/10/22 03:59:54;;;;;;;6.43;3.30;;;;;;;24.34;45.29;98552.41;4469688;32;33923;-64
2023/10/22 04:02:23;;;;;;;5.25;2.62;;;;;;;24.34;45.31;98566.03;4455779;32;33658;-63
2023/10/22 04:04:51;;;;;;;6.57;3.25;;;;;;;24.33;45.32;98570.66;4469905;32;34307;-64
2023/10/22 04:07:18;;;;;;;7.72;3.17;;;;;;;24.32;45.30;98571.75;4469777;32;33392;-63
2023/10/22 04:09:45;;;;;;;6.20;3.05;;;;;;;24.33;45.34;98576.13;4469794;32;33683;-64
2023/10/22 04:12:15;;;;;;;7.53;3.57;;;;;;;24.34;45.30;98563.31;4469763;32;34034;-63
2023/10/22 04:14:42;;;;;;;6.37;3.17;;;;;;;24.34;45.27;98571.47;4470174;32;33682;-63
2023/10/22 04:17:10;;;;;;;5.50;2.97;;;;;;;24.34;45.27;98576.94;4469733;32;33521;-64
2023/10/22 04:19:37;;;;;;;6.60;3.42;;;;;;;24.35;45.32;98592.22;4469660;32;33985;-64
2023/10/22 04:22:05;;;;;;;6.85;2.87;;;;;;;24.34;45.37;98615.94;4455559;32;34462;-63
2023/10/22 04:24:32;;;;;;;5.80;3.12;;;;;;;24.33;45.36;98617.00;4469705;32;34156;-63
2023/10/22 04:27:00;;;;;;;5.68;2.87;;;;;;;24.33;45.34;98616.19;4469448;32;34371;-63
2023/10/22 04:29:28;;;;;;;5.55;2.85;;;;;;;24.33;45.33;98613.47;4469718;32;34400;-63
2023/10/22 04:31:55;;;;;;;5.20;2.90;;;;;;;24.33;45.31;98608.00;4478270;32;34027;-64
2023/10/22 04:34:23;;;;;;;4.65;2.87;;;;;;;24.33;45.34;98613.47;4485155;32;34844;-64
2023/10/22 04:36:50;;;;;;;4.90;2.78;;;;;;;24.33;45.31;98618.91;4485296;32;34493;-64
2023/10/22 04:39:18;;;;;;;7.20;2.87;;;;;;;24.32;45.27;98623.56;4485251;32;33947;-64
2023/10/22 04:41:46;;;;;;;5.72;3.12;;;;;;;24.32;45.30;98637.19;4485112;32;33844;-63
2023/10/22 04:44:13;;;;;;;5.10;2.83;;;;;;;24.31;45.26;98630.09;4485221;32;34856;-64
2023/10/22 04:46:41;;;;;;;4.53;2.50;;;;;;;24.32;45.26;98639.09;4485426;32;33652;-64
2023/10/22 04:49:08;;;;;;;6.20;2.85;;;;;;;24.32;45.27;98639.09;4485031;32;33941;-63
2023/10/22 04:51:36;;;;;;;5.75;2.83;;;;;;;24.32;45.33;98636.37;4485042;32;34660;-63
2023/10/22 04:54:04;;;;;;;9.02;3.47;;;;;;;24.32;45.26;98644.53;4485088;32;34571;-63
2023/10/22 04:56:33;;;;;;;7.10;2.83;;;;;;;24.31;45.20;98638.28;4485072;32;33701;-63
2023/10/22 04:59:01;;;;;;;6.65;3.10;;;;;;;24.32;45.16;98645.34;4485132;32;34015;-64
2023/10/22 05:01:28;;;;;;;5.62;2.85;;;;;;;24.32;45.21;98652.72;4485121;32;33461;-64
2023/10/22 05:03:56;;;;;;;5.80;2.45;;;;;;;24.32;45.16;98659.00;4484971;32;33839;-64
2023/10/22 05:06:24;;;;;;;4.50;2.85;;;;;;;24.33;45.10;98659.81;4484647;32;33333;-64
2023/10/22 05:08:51;;;;;;;6.70;3.42;;;;;;;24.32;45.21;98666.34;4485011;32;34736;-64
2023/10/22 05:11:19;;;;;;;7.32;3.97;;;;;;;24.32;45.33;98669.91;4485216;32;33943;-64
2023/10/22 05:13:46;;;;;;;10.82;4.87;;;;;;;24.33;45.32;98676.97;4484945;32;34338;-63
2023/10/22 05:16:14;;;;;;;5.25;2.95;;;;;;;24.33;45.30;98678.88;4485017;32;34421;-64
2023/10/22 05:18:42;;;;;;;5.32;2.58;;;;;;;24.32;45.33;98677.25;4484839;32;33877;-64
2023/10/22 05:21:10;;;;;;;4.95;2.75;;;;;;;24.33;45.30;98681.63;4485052;32;33839;-63
2023/10/22 05:23:37;;;;;;;7.43;2.67;;;;;;;24.33;45.29;98692.53;4485237;32;34502;-63
2023/10/22 05:26:06;;;;;;;5.22;2.92;;;;;;;24.32;45.23;98694.44;4484823;32;33242;-64
2023/10/22 05:28:34;;;;;;;4.53;2.80;;;;;;;24.31;45.33;98698.25;4482548;32;33651;-62
2023/10/22 05:31:01;;;;;;;7.18;2.90;;;;;;;24.32;45.32;98708.06;4463891;32;33648;-64
2023/10/22 05:33:29;;;;;;;6.12;3.05;;;;;;;24.33;45.27;98712.41;4468801;32;34046;-64
2023/10/22 05:35:56;;;;;;;4.55;2.60;;;;;;;24.35;45.18;98710.28;4463060;32;33631;-64
2023/10/22 05:38:24;;;;;;;5.87;2.85;;;;;;;24.35;45.23;98723.09;4456399;32;33826;-64
2023/10/22 05:40:52;;;;;;;4.43;2.67;;;;;;;24.33;45.29;98730.69;4463635;32;33924;-64
2023/10/22 05:43:20;;;;;;;8.60;2.92;;;;;;;24.34;45.36;98735.06;4458664;32;33981;-64
2023/10/22 05:45:55;;;;;;;5.20;2.90;;;;;;;24.33;45.35;98742.41;4451215;32;34312;-64
2023/10/22 05:48:23;;;;;;;7.65;2.97;;;;;;;24.35;45.32;98747.62;4462922;32;33652;-64
2023/10/22 05:50:51;;;;;;;8.27;3.28;;;;;;;24.34;45.33;98752.25;4476353;32;34093;-63
2023/10/22 05:53:21;;;;;;;6.18;2.90;;;;;;;24.35;45.34;98761.25;4483704;32;34851;-64
2023/10/22 05:55:57;;;;;;;6.07;2.87;;;;;;;24.34;45.32;98776.78;4484327;32;33500;-64
2023/10/22 05:58:25;;;;;;;4.50;2.60;;;;;;;24.35;45.33;98786.63;4482314;32;33970;-64
2023/10/22 06:00:53;;;;;;;5.93;2.75;;;;;;;24.34;45.32;98782.25;4484050;32;33732;-64
2023/10/22 06:03:21;;;;;;;7.50;3.00;;;;;;;24.34;45.30;98790.44;4484382;32;34112;-63
2023/10/22 06:05:49;;;;;;;6.15;2.97;;;;;;;24.33;45.30;98796.94;4484382;32;33195;-64
2023/10/22 06:08:17;;;;;;;5.75;2.87;;;;;;;24.35;45.33;98800.25;4482681;32;33941;-64
2023/10/22 06:10:47;;;;;;;6.95;2.83;;;;;;;24.35;45.31;98808.44;4483483;32;34005;-64
2023/10/22 06:13:22;;;;;;;4.93;2.60;;;;;;;24.34;45.34;98811.37;4468074;32;33146;-64
2023/10/22 06:15:52;;;;;;;5.20;2.45;;;;;;;24.34;45.33;98812.25;4468630;32;33414;-64
2023/10/22 06:18:19;;;;;;;5.93;2.55;;;;;;;24.35;45.33;98807.59;4453310;32;33371;-64
2023/10/22 06:20:47;;;;;;;5.80;2.92;;;;;;;24.35;45.30;98810.34;4468252;32;34224;-64
2023/10/22 06:23:15;;;;;;;5.50;2.92;;;;;;;24.35;45.29;98815.78;4468393;32;34623;-64
2023/10/22 06:25:42;;;;;;;8.38;2.83;;;;;;;24.34;45.25;98812.25;4484053;32;33530;-63
2023/10/22 06:28:10;;;;;;;5.03;2.62;;;;;;;24.35;45.28;98821.25;4483371;32;34627;-64
2023/10/22 06:30:38;;;;;;;10.90;3.10;;;;;;;24.36;45.27;98831.06;4484037;32;33947;-64
2023/10/22 06:33:05;;;;;;;5.45;2.40;;;;;;;24.36;45.25;98836.50;4484072;32;34824;-64
2023/10/22 06:35:33;;;;;;;4.82;2.75;;;;;;;24.35;45.25;98834.87;4483868;32;33599;-64
2023/10/22 06:38:01;;;;;;;6.03;2.30;;;;;;;24.35;45.21;98843.88;4483537;32;34036;-64
2023/10/22 06:40:28;;;;;;;4.90;2.75;;;;;;;24.35;45.22;98851.22;4483947;32;33549;-63
2023/10/22 06:42:56;;;;;;;5.60;2.47;;;;;;;24.34;45.25;98853.13;4483670;32;34040;-64
2023/10/22 06:45:27;;;;;;;4.68;2.40;;;;;;;24.34;45.24;98855.00;4483992;32;34648;-64
2023/10/22 06:47:56;;;;;;;6.60;2.62;;;;;;;24.34;45.23;98858.59;4496069;31;33926;-63
2023/10/22 06:50:24;;;;;;;4.82;2.22;;;;;;;24.35;45.25;98867.59;4483816;32;34645;-63
2023/10/22 06:52:52;;;;;;;4.03;2.37;;;;;;;24.35;45.23;98873.03;4482335;32;34238;-62
2023/10/22 06:55:19;;;;;;;6.12;2.45;;;;;;;24.35;45.25;98873.84;4483982;32;33159;-63
2023/10/22 06:57:47;;;;;;;4.22;2.47;;;;;;;24.35;45.25;98873.03;4483805;32;34596;-63
2023/10/22 07:00:15;;;;;;;5.10;2.53;;;;;;;24.36;45.26;98875.53;4483595;32;34060;-63
2023/10/22 07:02:43;;;;;;;6.15;2.60;;;;;;;24.36;45.26;98874.69;4482387;32;34164;-63
2023/10/22 07:05:11;;;;;;;4.30;2.30;;;;;;;24.35;45.30;98878.50;4483863;32;34540;-63
2023/10/22 07:07:41;;;;;;;5.43;2.58;;;;;;;24.35;45.29;98883.94;4483955;32;34119;-63
2023/10/22 07:10:09;;;;;;;4.90;2.55;;;;;;;24.35;45.27;98898.41;4483449;32;34000;-63
2023/10/22 07:12:37;;;;;;;4.70;2.33;;;;;;;24.36;45.27;98900.06;4483694;32;33765;-64
2023/10/22 07:15:06;;;;;;;6.50;2.55;;;;;;;24.37;45.28;98909.06;4484009;32;34128;-63
2023/10/22 07:17:33;;;;;;;5.12;2.65;;;;;;;24.36;45.32;98910.13;4483709;32;34595;-63
2023/10/22 07:20:01;;;;;;;3.95;2.08;;;;;;;24.36;45.26;98904.66;4483713;32;34752;-64
2023/10/22 07:22:29;;;;;;;8.32;2.80;;;;;;;24.36;45.33;98905.53;4483727;32;34651;-64
2023/10/22 07:24:56;;;;;;;7.28;2.87;;;;;;;24.36;45.33;98910.13;4483336;32;33243;-64
2023/10/22 07:27:23;;;;;;;4.12;2.30;;;;;;;24.36;45.33;98926.47;4483023;32;33634;-64
2023/10/22 07:29:51;;;;;;;4.95;2.58;;;;;;;24.36;45.34;98926.47;4491921;31;33826;-63
2023/10/22 07:32:19;;;;;;;3.75;2.08;;;;;;;24.35;45.31;98925.66;4487819;31;34087;-63
2023/10/22 07:34:48;;;;;;;8.30;2.80;;;;;;;24.37;45.30;98933.59;4483404;32;33524;-64
2023/10/22 07:37:16;;;;;;;4.72;2.47;;;;;;;24.36;45.28;98930.06;4483633;32;33612;-64
2023/10/22 07:39:43;;;;;;;7.40;3.40;;;;;;;24.35;45.31;98928.38;4483258;32;33912;-63
2023/10/22 07:42:10;;;;;;;4.87;2.72;;;;;;;24.36;45.28;98937.38;4483457;32;34810;-64
2023/10/22 07:44:38;;;;;;;3.83;2.20;;;;;;;24.36;45.29;98953.75;4483367;32;33686;-64
2023/10/22 07:47:06;;;;;;;5.07;2.50;;;;;;;24.37;45.29;98966.31;4483109;32;33815;-64
2023/10/22 07:49:33;;;;;;;4.53;2.33;;;;;;;24.37;45.23;98971.78;4478737;32;102168;-64
2023/10/22 07:52:01;;;;;;;7.05;2.62;;;;;;;24.37;45.30;98971.78;4483328;32;33723;-64
2023/10/22 07:54:31;;;;;;;5.25;2.58;;;;;;;24.36;45.31;98979.13;4483004;32;33539;-65
2023/10/22 07:56:58;;;;;;;14.15;2.80;;;;;;;24.44;45.42;98986.06;4483047;32;33342;-66
2023/10/22 07:59:29;;;;;;;7.82;2.50;;;;;;;24.43;45.39;98989.84;4456439;32;34964;-65
2023/10/22 08:01:57;;;;;;;7.78;3.10;;;;;;;24.39;45.31;98986.00;4483008;32;34235;-65
2023/10/22 08:04:25;;;;;;;5.03;2.45;;;;;;;24.37;45.30;98991.69;4483286;32;34655;-64
2023/10/22 08:06:52;;;;;;;7.70;2.70;;;;;;;24.37;45.54;99002.59;4482925;32;33810;-65
2023/10/22 08:09:20;;;;;;;7.07;2.35;;;;;;;24.37;45.97;99004.50;4482802;32;33232;-64
2023/10/22 08:11:47;;;;;;;9.13;2.30;;;;;;;24.36;45.90;99006.41;4483033;32;34014;-64
2023/10/22 08:14:15;;;;;;;5.15;2.42;;;;;;;24.36;45.83;99011.00;4483071;32;34391;-64
2023/10/22 08:16:43;;;;;;;4.62;2.10;;;;;;;24.36;45.89;99006.41;4482937;32;33930;-64
2023/10/22 08:19:10;;;;;;;5.30;2.25;;;;;;;24.35;45.76;99004.72;4482977;32;32999;-64
2023/10/22 08:21:38;;;;;;;6.28;2.58;;;;;;;24.36;45.78;99016.44;4482796;32;34762;-64
2023/10/22 08:24:06;;;;;;;5.32;2.17;;;;;;;24.36;45.79;99011.00;4482778;32;33781;-64
2023/10/22 08:26:34;;;;;;;6.82;2.45;;;;;;;24.36;45.79;99011.00;4482868;32;34766;-64
2023/10/22 08:29:02;;;;;;;4.45;2.28;;;;;;;24.36;45.88;99013.72;4482626;32;33508;-65
2023/10/22 08:31:29;;;;;;;6.10;2.45;;;;;;;24.35;45.87;99020.25;4475427;32;34848;-66
2023/10/22 08:33:57;;;;;;;5.55;2.55;;;;;;;24.36;45.97;99027.34;4466039;32;33167;-65
2023/10/22 08:36:24;;;;;;;9.18;2.30;;;;;;;24.35;45.93;99025.72;4467024;32;34082;-66
2023/10/22 08:38:52;;;;;;;5.50;2.35;;;;;;;24.35;45.94;99026.53;4466794;32;33547;-65
2023/10/22 08:41:21;;;;;;;6.65;2.80;;;;;;;24.35;45.91;99028.44;4468375;32;34283;-65
2023/10/22 08:43:49;;;;;;;11.38;3.42;;;;;;;24.36;46.01;99035.53;4467914;32;33555;-66
2023/10/22 08:46:17;;;;;;;6.25;2.80;;;;;;;24.36;45.86;99041.00;4467931;32;33522;-66
2023/10/22 08:48:46;;;;;;;4.87;2.17;;;;;;;24.35;45.74;99044.81;4468909;32;34844;-66
2023/10/22 08:51:13;;;;;;;4.35;2.30;;;;;;;24.35;45.78;99050.25;4480389;32;34139;-66
2023/10/22 08:53:41;;;;;;;7.47;2.83;;;;;;;24.35;45.74;99052.97;4485150;32;33146;-66
2023/10/22 08:56:12;;;;;;;7.87;3.37;;;;;;;24.35;45.74;99058.44;4484827;32;34968;-66
2023/10/22 08:58:39;;;;;;;4.62;2.80;;;;;;;24.34;45.77;99067.66;4484764;32;34033;-66
2023/10/22 09:01:26;;;;;;;9.25;2.70;;;;;;;24.33;45.81;99064.13;4473052;32;34066;-65
2023/10/22 09:03:55;;;;;;;7.30;2.70;;;;;;;24.35;45.87;99066.62;4484963;32;33759;-65
2023/10/22 09:06:23;;;;;;;11.80;2.87;;;;;;;24.33;46.28;99076.91;4483929;32;33964;-65
2023/10/22 09:08:52;;;;;;;3.83;2.50;;;;;;;24.33;46.01;99080.47;4484830;32;33975;-64
2023/10/22 09:11:20;;;;;;;5.32;2.67;;;;;;;24.33;46.00;99079.66;4484803;32;34923;-64
2023/10/22 09:13:48;;;;;;;9.43;2.78;;;;;;;24.32;46.17;99078.00;4484069;32;34374;-64
2023/10/22 09:16:27;;;;;;;5.97;2.67;;;;;;;24.33;46.14;99087.81;4485007;32;34689;-65
2023/10/22 09:18:55;;;;;;;8.13;2.97;;;;;;;24.33;46.27;99090.56;4470816;32;34847;-65
2023/10/22 09:21:22;;;;;;;4.57;2.45;;;;;;;24.33;46.52;99104.19;4470649;32;34186;-64
2023/10/22 09:24:02;;;;;;;7.62;2.55;;;;;;;24.31;46.17;99107.19;4484572;32;34256;-65
2023/10/22 09:26:41;;;;;;;11.48;2.70;;;;;;;24.32;45.90;99105.28;4484768;32;33727;-62
2023/10/22 09:29:08;;;;;;;6.60;3.25;;;;;;;24.31;46.28;99109.91;4484579;32;33908;-63
2023/10/22 09:31:36;;;;;;;9.07;2.85;;;;;;;24.30;46.29;99113.72;4482936;32;34317;-63
2023/10/22 09:34:22;;;;;;;7.45;2.65;;;;;;;24.30;46.27;99113.72;4470286;32;33569;-63
2023/10/22 09:36:56;;;;;;;7.32;2.90;;;;;;;24.30;46.28;99123.78;4447736;32;32359;-63
2023/10/22 09:39:33;;;;;;;10.90;2.83;;;;;;;24.31;46.26;99133.63;4455525;32;34632;-65
2023/10/22 09:42:03;;;;;;;9.05;2.78;;;;;;;24.31;46.25;99139.06;4466057;32;33619;-64
2023/10/22 09:44:46;;;;;;;11.48;2.80;;;;;;;24.29;46.17;99147.47;4469400;32;34275;-64
2023/10/22 09:47:22;;;;;;;8.68;3.12;;;;;;;24.29;46.11;99149.38;4467235;32;33647;-64
2023/10/22 09:49:52;;;;;;;7.70;2.65;;;;;;;24.29;46.07;99139.28;4453908;32;34848;-64
2023/10/22 09:52:22;;;;;;;10.15;2.70;;;;;;;24.28;46.04;99155.91;4466677;32;34824;-65
2023/10/22 09:54:50;;;;;;;11.63;2.87;;;;;;;24.27;46.02;99152.38;4454377;32;33487;-64
2023/10/22 09:57:18;;;;;;;8.98;2.72;;;;;;;24.28;45.91;99148.56;4471366;32;33898;-65
2023/10/22 09:59:46;;;;;;;7.80;2.37;;;;;;;24.27;45.87;99149.63;4484258;32;34720;-64
2023/10/22 10:02:15;;;;;;;5.07;2.55;;;;;;;24.28;45.87;99155.91;4469858;32;33857;-64
2023/10/22 10:04:50;;;;;;;12.35;2.75;;;;;;;24.26;45.86;99164.34;4484713;32;34151;-64
2023/10/22 10:07:18;;;;;;;8.68;2.75;;;;;;;24.27;45.80;99166.00;4482572;32;33684;-64
2023/10/22 10:09:45;;;;;;;7.90;2.08;;;;;;;24.27;45.77;99154.25;4476401;32;34224;-64
2023/10/22 10:12:13;;;;;;;8.85;2.20;;;;;;;24.25;45.75;99165.44;4480088;31;34428;-65
2023/10/22 10:14:45;;;;;;;4.22;2.30;;;;;;;24.26;45.71;99163.53;4467906;32;33836;-64
2023/10/22 10:17:14;;;;;;;4.40;2.25;;;;;;;24.25;45.71;99167.31;4482094;32;33659;-64
2023/10/22 10:19:42;;;;;;;18.97;3.03;;;;;;;24.24;45.70;99165.66;4470430;32;33981;-64
2023/10/22 10:22:09;;;;;;;9.88;2.42;;;;;;;24.26;45.67;99166.25;4484450;32;34059;-64
2023/10/22 10:24:36;;;;;;;11.23;2.90;;;;;;;24.24;45.66;99177.37;4483200;32;33559;-64
2023/10/22 10:27:05;;;;;;;7.25;2.42;;;;;;;24.25;45.66;99178.19;4468301;32;34645;-64
2023/10/22 10:29:32;;;;;;;8.43;2.78;;;;;;;24.26;45.65;99185.34;4468334;32;34402;-64
2023/10/22 10:32:15;;;;;;;5.20;2.25;;;;;;;24.24;45.62;99191.00;4476813;32;34379;-64
2023/10/22 10:34:45;;;;;;;5.53;2.22;;;;;;;24.26;45.57;99193.50;4483723;32;33213;-64
2023/10/22 10:37:20;;;;;;;5.97;2.47;;;;;;;24.24;45.57;99191.00;4478387;32;33828;-64
2023/10/22 10:39:48;;;;;;;5.72;2.55;;;;;;;24.25;45.53;99184.50;4469374;32;33986;-64
2023/10/22 10:42:28;;;;;;;5.60;2.45;;;;;;;24.23;45.53;99192.09;4479637;32;34832;-65
2023/10/22 10:44:56;;;;;;;3.40;2.00;;;;;;;24.25;45.51;99202.75;4484341;32;33841;-64
2023/10/22 10:47:27;;;;;;;6.53;2.30;;;;;;;24.23;45.52;99197.53;4476050;32;33422;-64
2023/10/22 10:50:11;;;;;;;4.87;2.00;;;;;;;24.23;45.50;99199.44;4476251;32;34068;-65
2023/10/22 10:52:42;;;;;;;5.57;2.08;;;;;;;24.24;45.45;99203.81;4479650;32;34102;-65
2023/10/22 10:55:27;;;;;;;7.00;2.40;;;;;;;24.23;45.47;99199.44;4468497;32;34741;-65
2023/10/22 10:57:55;;;;;;;5.07;2.60;;;;;;;24.21;45.46;99188.81;4468526;32;34817;-65
2023/10/22 11:00:30;;;;;;;4.12;2.12;;;;;;;24.21;45.43;99194.25;4468145;32;34171;-64
2023/10/22 11:03:02;;;;;;;6.25;2.50;;;;;;;24.21;45.43;99205.16;4465911;32;34006;-64
2023/10/22 11:05:31;;;;;;;5.05;2.40;;;;;;;24.20;45.43;99206.19;4467240;32;33225;-64
2023/10/22 11:07:59;;;;;;;4.80;2.20;;;;;;;24.21;45.42;99215.22;4470505;32;34787;-67
2023/10/22 11:10:27;;;;;;;9.20;2.67;;;;;;;24.22;45.41;99214.16;4483907;32;33815;-66
2023/10/22 11:13:01;;;;;;;7.35;3.00;;;;;;;24.21;45.36;99216.06;4474683;32;34157;-67
2023/10/22 11:15:36;;;;;;;8.65;3.25;;;;;;;24.22;45.34;99211.44;4474077;32;33311;-66
2023/10/22 11:18:06;;;;;;;4.80;2.62;;;;;;;24.22;45.32;99214.97;4467074;32;34652;-66
2023/10/22 11:20:34;;;;;;;6.57;2.72;;;;;;;24.24;45.29;99204.62;4475259;32;33933;-65
2023/10/22 11:23:01;;;;;;;7.25;2.00;;;;;;;24.23;45.30;99208.44;4478847;32;33758;-66
2023/10/22 11:25:30;;;;;;;4.87;2.20;;;;;;;24.25;45.32;99197.28;4458982;32;34363;-66
2023/10/22 11:27:58;;;;;;;6.03;2.00;;;;;;;24.23;45.30;99197.53;4478619;32;34530;-65
2023/10/22 11:30:40;;;;;;;7.70;1.98;;;;;;;24.24;45.34;99201.09;4470809;32;34602;-66
2023/10/22 11:33:26;;;;;;;9.02;2.10;;;;;;;24.25;45.36;99200.87;4465535;31;34274;-66
2023/10/22 11:35:57;;;;;;;10.73;1.90;;;;;;;24.28;45.38;99203.06;4479392;32;33647;-66
2023/10/22 11:38:26;;;;;;;5.80;1.60;;;;;;;24.26;45.52;99210.69;4466366;32;33855;-65
2023/10/22 11:40:54;;;;;;;9.55;2.08;;;;;;;24.26;45.53;99210.69;4467704;32;33685;-66